sensor_id;sensor_type;location;lat;lon;timestamp;pressure;altitude;pressure_sealevel;temperature
60731;BMP280;46580;52.114;11.674;2023-05-16T00:00:05;100549.00;;;12.96
60731;BMP280;46580;52.114;11.674;2023-05-16T00:02:34;100560.00;;;12.88
60731;BMP280;46580;52.114;11.674;2023-05-16T00:05:00;100556.06;;;12.84
60731;BMP280;46580;52.114;11.674;2023-05-16T00:07:25;100556.75;;;12.86
60731;BMP280;46580;52.114;11.674;2023-05-16T00:09:51;100568.13;;;12.75
60731;BMP280;46580;52.114;11.674;2023-05-16T00:12:16;100574.25;;;12.64
60731;BMP280;46580;52.114;11.674;2023-05-16T00:14:42;100578.28;;;12.58
60731;BMP280;46580;52.114;11.674;2023-05-16T00:17:07;100569.59;;;12.59
60731;BMP280;46580;52.114;11.674;2023-05-16T00:19:36;100574.53;;;12.42
60731;BMP280;46580;52.114;11.674;2023-05-16T00:22:04;100590.50;;;12.26
60731;BMP280;46580;52.114;11.674;2023-05-16T00:24:29;100583.28;;;12.21
60731;BMP280;46580;52.114;11.674;2023-05-16T00:26:56;100596.28;;;12.10
60731;BMP280;46580;52.114;11.674;2023-05-16T00:29:21;100594.47;;;12.01
60731;BMP280;46580;52.114;11.674;2023-05-16T00:31:48;100611.47;;;11.84
60731;BMP280;46580;52.114;11.674;2023-05-16T00:34:14;100605.13;;;11.68
60731;BMP280;46580;52.114;11.674;2023-05-16T00:36:40;100617.25;;;11.56
60731;BMP280;46580;52.114;11.674;2023-05-16T00:39:05;100608.69;;;11.36
60731;BMP280;46580;52.114;11.674;2023-05-16T00:41:32;100610.69;;;11.22
60731;BMP280;46580;52.114;11.674;2023-05-16T00:43:58;100617.16;;;11.16
60731;BMP280;46580;52.114;11.674;2023-05-16T00:46:23;100619.03;;;11.14
60731;BMP280;46580;52.114;11.674;2023-05-16T00:48:49;100615.19;;;11.09
60731;BMP280;46580;52.114;11.674;2023-05-16T00:51:15;100608.22;;;10.90
60731;BMP280;46580;52.114;11.674;2023-05-16T00:53:41;100619.56;;;10.87
60731;BMP280;46580;52.114;11.674;2023-05-16T00:56:06;100617.59;;;10.80
60731;BMP280;46580;52.114;11.674;2023-05-16T00:58:32;100627.81;;;10.71
60731;BMP280;46580;52.114;11.674;2023-05-16T01:00:58;100628.25;;;10.65
60731;BMP280;46580;52.114;11.674;2023-05-16T01:03:26;100622.16;;;10.66
60731;BMP280;46580;52.114;11.674;2023-05-16T01:05:52;100614.09;;;10.59
60731;BMP280;46580;52.114;11.674;2023-05-16T01:08:17;100617.28;;;10.63
60731;BMP280;46580;52.114;11.674;2023-05-16T01:10:57;100617.50;;;10.60
60731;BMP280;46580;52.114;11.674;2023-05-16T01:13:30;100616.22;;;10.55
60731;BMP280;46580;52.114;11.674;2023-05-16T01:16:45;100606.41;;;10.49
60731;BMP280;46580;52.114;11.674;2023-05-16T01:24:32;100637.63;;;10.44
60731;BMP280;46580;52.114;11.674;2023-05-16T01:26:59;100640.09;;;10.46
60731;BMP280;46580;52.114;11.674;2023-05-16T01:29:25;100641.00;;;10.45
60731;BMP280;46580;52.114;11.674;2023-05-16T01:31:50;100649.09;;;10.40
60731;BMP280;46580;52.114;11.674;2023-05-16T01:34:16;100641.84;;;10.35
60731;BMP280;46580;52.114;11.674;2023-05-16T01:36:48;100648.19;;;10.31
60731;BMP280;46580;52.114;11.674;2023-05-16T01:39:31;100650.75;;;10.31
60731;BMP280;46580;52.114;11.674;2023-05-16T01:42:07;100645.47;;;10.32
60731;BMP280;46580;52.114;11.674;2023-05-16T01:47:19;100658.56;;;10.29
60731;BMP280;46580;52.114;11.674;2023-05-16T01:50:04;100669.44;;;10.22
60731;BMP280;46580;52.114;11.674;2023-05-16T01:52:41;100671.28;;;10.20
60731;BMP280;46580;52.114;11.674;2023-05-16T01:55:10;100672.84;;;10.22
60731;BMP280;46580;52.114;11.674;2023-05-16T01:57:40;100672.34;;;10.18
60731;BMP280;46580;52.114;11.674;2023-05-16T02:00:07;100680.03;;;10.18
60731;BMP280;46580;52.114;11.674;2023-05-16T02:02:32;100679.47;;;10.14
60731;BMP280;46580;52.114;11.674;2023-05-16T02:04:58;100670.13;;;10.13
60731;BMP280;46580;52.114;11.674;2023-05-16T02:07:23;100681.81;;;10.17
60731;BMP280;46580;52.114;11.674;2023-05-16T02:09:49;100676.53;;;10.19
60731;BMP280;46580;52.114;11.674;2023-05-16T02:12:15;100681.94;;;10.26
60731;BMP280;46580;52.114;11.674;2023-05-16T02:14:40;100679.72;;;10.22
60731;BMP280;46580;52.114;11.674;2023-05-16T02:17:08;100673.28;;;10.17
60731;BMP280;46580;52.114;11.674;2023-05-16T02:19:34;100686.72;;;10.20
60731;BMP280;46580;52.114;11.674;2023-05-16T02:21:59;100683.44;;;10.18
60731;BMP280;46580;52.114;11.674;2023-05-16T02:24:25;100685.34;;;10.16
60731;BMP280;46580;52.114;11.674;2023-05-16T02:26:50;100684.63;;;10.14
60731;BMP280;46580;52.114;11.674;2023-05-16T02:29:15;100675.25;;;10.13
60731;BMP280;46580;52.114;11.674;2023-05-16T02:31:41;100680.53;;;10.22
60731;BMP280;46580;52.114;11.674;2023-05-16T02:34:07;100688.47;;;10.20
60731;BMP280;46580;52.114;11.674;2023-05-16T02:36:33;100687.19;;;10.14
60731;BMP280;46580;52.114;11.674;2023-05-16T02:39:00;100682.97;;;10.13
60731;BMP280;46580;52.114;11.674;2023-05-16T02:41:29;100692.34;;;10.14
60731;BMP280;46580;52.114;11.674;2023-05-16T02:43:55;100693.72;;;10.18
60731;BMP280;46580;52.114;11.674;2023-05-16T02:46:26;100690.34;;;10.18
60731;BMP280;46580;52.114;11.674;2023-05-16T02:48:52;100705.91;;;10.16
60731;BMP280;46580;52.114;11.674;2023-05-16T02:51:19;100709.88;;;10.20
60731;BMP280;46580;52.114;11.674;2023-05-16T02:53:45;100718.41;;;10.31
60731;BMP280;46580;52.114;11.674;2023-05-16T02:56:11;100722.53;;;10.34
60731;BMP280;46580;52.114;11.674;2023-05-16T02:58:37;100725.09;;;10.34
60731;BMP280;46580;52.114;11.674;2023-05-16T03:01:02;100727.66;;;10.34
60731;BMP280;46580;52.114;11.674;2023-05-16T03:03:31;100735.41;;;10.34
60731;BMP280;46580;52.114;11.674;2023-05-16T03:05:59;100736.00;;;10.37
60731;BMP280;46580;52.114;11.674;2023-05-16T03:08:25;100735.66;;;10.41
60731;BMP280;46580;52.114;11.674;2023-05-16T03:10:51;100737.66;;;10.49
60731;BMP280;46580;52.114;11.674;2023-05-16T03:13:16;100739.16;;;10.51
60731;BMP280;46580;52.114;11.674;2023-05-16T03:15:42;100730.75;;;10.49
60731;BMP280;46580;52.114;11.674;2023-05-16T03:18:08;100738.59;;;10.69
60731;BMP280;46580;52.114;11.674;2023-05-16T03:20:33;100744.56;;;10.70
60731;BMP280;46580;52.114;11.674;2023-05-16T03:22:58;100740.81;;;10.63
60731;BMP280;46580;52.114;11.674;2023-05-16T03:25:24;100756.00;;;10.55
60731;BMP280;46580;52.114;11.674;2023-05-16T03:27:51;100753.91;;;10.60
60731;BMP280;46580;52.114;11.674;2023-05-16T03:30:18;100756.88;;;10.77
60731;BMP280;46580;52.114;11.674;2023-05-16T03:32:44;100751.09;;;10.74
60731;BMP280;46580;52.114;11.674;2023-05-16T03:35:10;100757.66;;;10.67
60731;BMP280;46580;52.114;11.674;2023-05-16T03:37:37;100760.47;;;10.64
60731;BMP280;46580;52.114;11.674;2023-05-16T03:40:02;100757.44;;;10.70
60731;BMP280;46580;52.114;11.674;2023-05-16T03:42:30;100752.75;;;10.64
60731;BMP280;46580;52.114;11.674;2023-05-16T03:44:56;100768.88;;;10.66
60731;BMP280;46580;52.114;11.674;2023-05-16T03:47:22;100760.13;;;10.68
60731;BMP280;46580;52.114;11.674;2023-05-16T03:49:47;100766.19;;;10.67
60731;BMP280;46580;52.114;11.674;2023-05-16T03:52:13;100764.44;;;10.78
60731;BMP280;46580;52.114;11.674;2023-05-16T03:54:38;100773.13;;;10.88
60731;BMP280;46580;52.114;11.674;2023-05-16T03:57:04;100767.97;;;10.77
60731;BMP280;46580;52.114;11.674;2023-05-16T03:59:30;100766.00;;;10.70
60731;BMP280;46580;52.114;11.674;2023-05-16T04:01:55;100769.47;;;10.80
60731;BMP280;46580;52.114;11.674;2023-05-16T04:04:21;100775.56;;;10.79
60731;BMP280;46580;52.114;11.674;2023-05-16T04:06:46;100779.00;;;10.90
60731;BMP280;46580;52.114;11.674;2023-05-16T04:09:11;100785.88;;;10.90
60731;BMP280;46580;52.114;11.674;2023-05-16T04:11:37;100787.63;;;10.78
60731;BMP280;46580;52.114;11.674;2023-05-16T04:16:48;100785.25;;;10.65
60731;BMP280;46580;52.114;11.674;2023-05-16T04:19:14;100781.44;;;10.70
60731;BMP280;46580;52.114;11.674;2023-05-16T04:21:39;100783.06;;;10.82
60731;BMP280;46580;52.114;11.674;2023-05-16T04:24:05;100782.13;;;10.83
60731;BMP280;46580;52.114;11.674;2023-05-16T04:26:31;100779.91;;;10.78
60731;BMP280;46580;52.114;11.674;2023-05-16T04:28:56;100792.75;;;10.78
60731;BMP280;46580;52.114;11.674;2023-05-16T04:31:24;100794.44;;;10.90
60731;BMP280;46580;52.114;11.674;2023-05-16T04:33:49;100793.72;;;10.88
60731;BMP280;46580;52.114;11.674;2023-05-16T04:36:15;100790.69;;;10.94
60731;BMP280;46580;52.114;11.674;2023-05-16T04:38:40;100804.03;;;10.99
60731;BMP280;46580;52.114;11.674;2023-05-16T04:41:06;100810.00;;;10.99
60731;BMP280;46580;52.114;11.674;2023-05-16T04:43:31;100809.31;;;11.08
60731;BMP280;46580;52.114;11.674;2023-05-16T04:45:56;100811.63;;;11.00
60731;BMP280;46580;52.114;11.674;2023-05-16T04:48:23;100812.81;;;11.07
60731;BMP280;46580;52.114;11.674;2023-05-16T04:50:48;100819.97;;;11.04
60731;BMP280;46580;52.114;11.674;2023-05-16T04:53:14;100829.78;;;10.99
60731;BMP280;46580;52.114;11.674;2023-05-16T04:55:39;100829.91;;;10.97
60731;BMP280;46580;52.114;11.674;2023-05-16T04:58:05;100831.19;;;11.03
60731;BMP280;46580;52.114;11.674;2023-05-16T05:00:31;100832.59;;;11.07
60731;BMP280;46580;52.114;11.674;2023-05-16T05:02:56;100842.31;;;11.03
60731;BMP280;46580;52.114;11.674;2023-05-16T05:05:22;100839.38;;;11.08
60731;BMP280;46580;52.114;11.674;2023-05-16T05:07:47;100845.97;;;11.12
60731;BMP280;46580;52.114;11.674;2023-05-16T05:10:13;100852.72;;;11.13
60731;BMP280;46580;52.114;11.674;2023-05-16T05:12:38;100859.31;;;11.16
60731;BMP280;46580;52.114;11.674;2023-05-16T05:15:05;100866.56;;;11.12
60731;BMP280;46580;52.114;11.674;2023-05-16T05:17:31;100869.94;;;11.12
60731;BMP280;46580;52.114;11.674;2023-05-16T05:19:56;100872.88;;;11.08
60731;BMP280;46580;52.114;11.674;2023-05-16T05:22:21;100878.13;;;11.06
60731;BMP280;46580;52.114;11.674;2023-05-16T05:24:47;100876.47;;;11.05
60731;BMP280;46580;52.114;11.674;2023-05-16T05:27:12;100886.22;;;11.02
60731;BMP280;46580;52.114;11.674;2023-05-16T05:29:38;100886.34;;;11.11
60731;BMP280;46580;52.114;11.674;2023-05-16T05:32:04;100875.81;;;11.14
60731;BMP280;46580;52.114;11.674;2023-05-16T05:34:30;100888.47;;;11.17
60731;BMP280;46580;52.114;11.674;2023-05-16T05:36:56;100882.13;;;11.21
60731;BMP280;46580;52.114;11.674;2023-05-16T05:39:22;100889.09;;;11.31
60731;BMP280;46580;52.114;11.674;2023-05-16T05:41:48;100886.25;;;11.23
60731;BMP280;46580;52.114;11.674;2023-05-16T05:44:13;100887.44;;;11.30
60731;BMP280;46580;52.114;11.674;2023-05-16T05:46:39;100884.06;;;11.30
60731;BMP280;46580;52.114;11.674;2023-05-16T05:49:05;100882.53;;;11.38
60731;BMP280;46580;52.114;11.674;2023-05-16T05:51:30;100886.53;;;11.31
60731;BMP280;46580;52.114;11.674;2023-05-16T05:53:56;100887.56;;;11.39
60731;BMP280;46580;52.114;11.674;2023-05-16T05:56:21;100881.56;;;11.28
60731;BMP280;46580;52.114;11.674;2023-05-16T05:58:49;100891.09;;;11.38
60731;BMP280;46580;52.114;11.674;2023-05-16T06:01:15;100894.25;;;11.42
60731;BMP280;46580;52.114;11.674;2023-05-16T06:03:41;100897.03;;;11.39
60731;BMP280;46580;52.114;11.674;2023-05-16T06:06:07;100902.22;;;11.50
60731;BMP280;46580;52.114;11.674;2023-05-16T06:08:32;100894.69;;;11.47
60731;BMP280;46580;52.114;11.674;2023-05-16T06:10:58;100901.84;;;11.54
60731;BMP280;46580;52.114;11.674;2023-05-16T06:13:24;100901.03;;;11.53
60731;BMP280;46580;52.114;11.674;2023-05-16T06:15:53;100896.47;;;11.57
60731;BMP280;46580;52.114;11.674;2023-05-16T06:18:22;100893.31;;;11.64
60731;BMP280;46580;52.114;11.674;2023-05-16T06:20:47;100902.06;;;11.72
60731;BMP280;46580;52.114;11.674;2023-05-16T06:23:13;100903.47;;;11.76
60731;BMP280;46580;52.114;11.674;2023-05-16T06:25:38;100901.94;;;11.85
60731;BMP280;46580;52.114;11.674;2023-05-16T06:28:04;100906.28;;;11.84
60731;BMP280;46580;52.114;11.674;2023-05-16T06:30:29;100905.22;;;11.87
60731;BMP280;46580;52.114;11.674;2023-05-16T06:32:55;100910.13;;;11.89
60731;BMP280;46580;52.114;11.674;2023-05-16T06:35:20;100905.47;;;11.84
60731;BMP280;46580;52.114;11.674;2023-05-16T06:37:46;100913.78;;;11.76
60731;BMP280;46580;52.114;11.674;2023-05-16T06:40:11;100906.19;;;11.64
60731;BMP280;46580;52.114;11.674;2023-05-16T06:42:37;100921.44;;;11.56
60731;BMP280;46580;52.114;11.674;2023-05-16T06:45:03;100930.56;;;11.60
60731;BMP280;46580;52.114;11.674;2023-05-16T06:47:28;100937.81;;;11.77
60731;BMP280;46580;52.114;11.674;2023-05-16T06:49:54;100936.03;;;11.88
60731;BMP280;46580;52.114;11.674;2023-05-16T06:52:20;100948.38;;;11.85
60731;BMP280;46580;52.114;11.674;2023-05-16T06:54:46;100944.72;;;11.66
60731;BMP280;46580;52.114;11.674;2023-05-16T06:57:11;100941.56;;;11.73
60731;BMP280;46580;52.114;11.674;2023-05-16T06:59:37;100943.94;;;11.65
60731;BMP280;46580;52.114;11.674;2023-05-16T07:02:03;100949.78;;;11.78
60731;BMP280;46580;52.114;11.674;2023-05-16T07:04:28;100956.13;;;11.85
60731;BMP280;46580;52.114;11.674;2023-05-16T07:06:54;100962.22;;;11.84
60731;BMP280;46580;52.114;11.674;2023-05-16T07:09:20;100966.88;;;11.89
60731;BMP280;46580;52.114;11.674;2023-05-16T07:11:45;100968.06;;;11.96
60731;BMP280;46580;52.114;11.674;2023-05-16T07:14:11;100968.25;;;12.15
60731;BMP280;46580;52.114;11.674;2023-05-16T07:16:36;100972.97;;;12.10
60731;BMP280;46580;52.114;11.674;2023-05-16T07:19:02;100968.75;;;11.98
60731;BMP280;46580;52.114;11.674;2023-05-16T07:21:27;100974.25;;;11.94
60731;BMP280;46580;52.114;11.674;2023-05-16T07:23:53;100971.13;;;11.90
60731;BMP280;46580;52.114;11.674;2023-05-16T07:26:19;100978.16;;;11.78
60731;BMP280;46580;52.114;11.674;2023-05-16T07:28:48;100968.06;;;11.75
60731;BMP280;46580;52.114;11.674;2023-05-16T07:31:14;100973.91;;;11.88
60731;BMP280;46580;52.114;11.674;2023-05-16T07:33:40;100965.38;;;11.98
60731;BMP280;46580;52.114;11.674;2023-05-16T07:36:06;100971.53;;;12.06
60731;BMP280;46580;52.114;11.674;2023-05-16T07:38:32;100966.59;;;12.14
60731;BMP280;46580;52.114;11.674;2023-05-16T07:40:57;100975.66;;;12.08
60731;BMP280;46580;52.114;11.674;2023-05-16T07:43:23;100984.22;;;12.09
60731;BMP280;46580;52.114;11.674;2023-05-16T07:45:51;100979.53;;;12.03
60731;BMP280;46580;52.114;11.674;2023-05-16T07:48:16;100991.72;;;12.23
60731;BMP280;46580;52.114;11.674;2023-05-16T07:50:42;100979.50;;;12.14
60731;BMP280;46580;52.114;11.674;2023-05-16T07:53:08;100985.59;;;12.13
60731;BMP280;46580;52.114;11.674;2023-05-16T07:55:33;100991.81;;;12.32
60731;BMP280;46580;52.114;11.674;2023-05-16T07:57:59;100991.41;;;12.47
60731;BMP280;46580;52.114;11.674;2023-05-16T08:00:25;101001.72;;;12.47
60731;BMP280;46580;52.114;11.674;2023-05-16T08:02:50;100998.91;;;12.50
60731;BMP280;46580;52.114;11.674;2023-05-16T08:05:16;100993.81;;;12.28
60731;BMP280;46580;52.114;11.674;2023-05-16T08:07:41;100994.06;;;12.26
60731;BMP280;46580;52.114;11.674;2023-05-16T08:10:07;100992.88;;;12.29
60731;BMP280;46580;52.114;11.674;2023-05-16T08:12:33;101004.63;;;12.12
60731;BMP280;46580;52.114;11.674;2023-05-16T08:14:58;101007.66;;;12.17
60731;BMP280;46580;52.114;11.674;2023-05-16T08:17:24;101015.41;;;12.06
60731;BMP280;46580;52.114;11.674;2023-05-16T08:19:49;101007.19;;;12.01
60731;BMP280;46580;52.114;11.674;2023-05-16T08:22:15;101009.78;;;12.23
60731;BMP280;46580;52.114;11.674;2023-05-16T08:24:43;101011.88;;;12.28
60731;BMP280;46580;52.114;11.674;2023-05-16T08:27:16;101013.00;;;12.57
60731;BMP280;46580;52.114;11.674;2023-05-16T08:29:41;101015.88;;;12.74
60731;BMP280;46580;52.114;11.674;2023-05-16T08:32:08;101014.19;;;12.53
60731;BMP280;46580;52.114;11.674;2023-05-16T08:34:34;101013.13;;;12.66
60731;BMP280;46580;52.114;11.674;2023-05-16T08:37:01;101006.88;;;12.58
60731;BMP280;46580;52.114;11.674;2023-05-16T08:39:26;101009.94;;;12.63
60731;BMP280;46580;52.114;11.674;2023-05-16T08:41:52;101004.09;;;12.50
60731;BMP280;46580;52.114;11.674;2023-05-16T08:44:18;101005.59;;;12.63
60731;BMP280;46580;52.114;11.674;2023-05-16T08:46:52;101008.34;;;12.82
60731;BMP280;46580;52.114;11.674;2023-05-16T08:49:18;101008.69;;;12.88
60731;BMP280;46580;52.114;11.674;2023-05-16T08:52:03;101008.97;;;13.25
60731;BMP280;46580;52.114;11.674;2023-05-16T08:54:31;101018.88;;;13.40
60731;BMP280;46580;52.114;11.674;2023-05-16T08:57:00;101010.59;;;13.06
60731;BMP280;46580;52.114;11.674;2023-05-16T08:59:30;101025.59;;;12.92
60731;BMP280;46580;52.114;11.674;2023-05-16T09:01:56;101032.91;;;12.87
60731;BMP280;46580;52.114;11.674;2023-05-16T09:04:21;101029.22;;;12.89
60731;BMP280;46580;52.114;11.674;2023-05-16T09:06:49;101022.38;;;12.99
60731;BMP280;46580;52.114;11.674;2023-05-16T09:09:16;101019.75;;;13.10
60731;BMP280;46580;52.114;11.674;2023-05-16T09:11:41;101018.19;;;13.18
60731;BMP280;46580;52.114;11.674;2023-05-16T09:14:07;101023.03;;;13.12
60731;BMP280;46580;52.114;11.674;2023-05-16T09:16:35;101027.09;;;13.14
60731;BMP280;46580;52.114;11.674;2023-05-16T09:19:00;101018.56;;;13.34
60731;BMP280;46580;52.114;11.674;2023-05-16T09:21:33;101024.38;;;13.46
60731;BMP280;46580;52.114;11.674;2023-05-16T09:24:05;101020.25;;;13.84
60731;BMP280;46580;52.114;11.674;2023-05-16T09:26:32;101017.13;;;13.90
60731;BMP280;46580;52.114;11.674;2023-05-16T09:28:58;101010.25;;;14.56
60731;BMP280;46580;52.114;11.674;2023-05-16T09:31:25;101006.59;;;14.59
60731;BMP280;46580;52.114;11.674;2023-05-16T09:33:52;101013.66;;;14.57
60731;BMP280;46580;52.114;11.674;2023-05-16T09:36:17;101019.00;;;14.08
60731;BMP280;46580;52.114;11.674;2023-05-16T09:38:44;101025.03;;;13.88
60731;BMP280;46580;52.114;11.674;2023-05-16T09:41:10;101024.44;;;14.52
60731;BMP280;46580;52.114;11.674;2023-05-16T09:43:38;101026.34;;;14.69
60731;BMP280;46580;52.114;11.674;2023-05-16T09:46:04;101023.38;;;14.92
60731;BMP280;46580;52.114;11.674;2023-05-16T09:48:31;101026.56;;;14.95
60731;BMP280;46580;52.114;11.674;2023-05-16T09:50:57;101028.63;;;15.01
60731;BMP280;46580;52.114;11.674;2023-05-16T09:53:33;101033.59;;;14.84
60731;BMP280;46580;52.114;11.674;2023-05-16T09:56:00;101040.22;;;14.50
60731;BMP280;46580;52.114;11.674;2023-05-16T09:58:34;101044.78;;;14.18
60731;BMP280;46580;52.114;11.674;2023-05-16T10:01:00;101034.66;;;14.15
60731;BMP280;46580;52.114;11.674;2023-05-16T10:03:26;101033.81;;;14.35
60731;BMP280;46580;52.114;11.674;2023-05-16T10:05:52;101041.13;;;14.21
60731;BMP280;46580;52.114;11.674;2023-05-16T10:08:20;101044.84;;;14.37
60731;BMP280;46580;52.114;11.674;2023-05-16T10:10:50;101040.44;;;14.85
60731;BMP280;46580;52.114;11.674;2023-05-16T10:13:19;101033.25;;;15.25
60731;BMP280;46580;52.114;11.674;2023-05-16T10:15:45;101035.28;;;15.13
60731;BMP280;46580;52.114;11.674;2023-05-16T10:18:11;101037.22;;;15.02
60731;BMP280;46580;52.114;11.674;2023-05-16T10:20:41;101026.72;;;15.22
60731;BMP280;46580;52.114;11.674;2023-05-16T10:23:08;101025.31;;;15.18
60731;BMP280;46580;52.114;11.674;2023-05-16T10:25:41;101040.19;;;14.88
60731;BMP280;46580;52.114;11.674;2023-05-16T10:28:10;101040.69;;;14.73
60731;BMP280;46580;52.114;11.674;2023-05-16T10:30:39;101031.16;;;14.83
60731;BMP280;46580;52.114;11.674;2023-05-16T10:33:08;101030.34;;;14.73
60731;BMP280;46580;52.114;11.674;2023-05-16T10:35:34;101036.31;;;14.64
60731;BMP280;46580;52.114;11.674;2023-05-16T10:38:01;101040.88;;;15.18
60731;BMP280;46580;52.114;11.674;2023-05-16T10:40:28;101039.09;;;15.55
60731;BMP280;46580;52.114;11.674;2023-05-16T10:43:00;101037.19;;;15.39
60731;BMP280;46580;52.114;11.674;2023-05-16T10:45:26;101040.84;;;15.45
60731;BMP280;46580;52.114;11.674;2023-05-16T10:47:59;101043.09;;;15.22
60731;BMP280;46580;52.114;11.674;2023-05-16T10:50:38;101041.28;;;15.04
60731;BMP280;46580;52.114;11.674;2023-05-16T10:53:16;101038.03;;;15.11
60731;BMP280;46580;52.114;11.674;2023-05-16T11:01:16;101034.50;;;16.20
60731;BMP280;46580;52.114;11.674;2023-05-16T11:04:01;101051.56;;;15.78
60731;BMP280;46580;52.114;11.674;2023-05-16T11:06:28;101053.97;;;15.44
60731;BMP280;46580;52.114;11.674;2023-05-16T11:09:04;101069.81;;;15.04
60731;BMP280;46580;52.114;11.674;2023-05-16T11:17:23;101062.31;;;15.38
60731;BMP280;46580;52.114;11.674;2023-05-16T11:19:55;101069.53;;;15.16
60731;BMP280;46580;52.114;11.674;2023-05-16T11:22:29;101059.31;;;15.15
60731;BMP280;46580;52.114;11.674;2023-05-16T11:27:33;101055.78;;;15.16
60731;BMP280;46580;52.114;11.674;2023-05-16T11:32:36;101066.25;;;15.51
60731;BMP280;46580;52.114;11.674;2023-05-16T11:35:06;101057.13;;;15.47
60731;BMP280;46580;52.114;11.674;2023-05-16T11:37:33;101068.31;;;15.48
60731;BMP280;46580;52.114;11.674;2023-05-16T11:40:05;101060.16;;;15.15
60731;BMP280;46580;52.114;11.674;2023-05-16T11:42:42;101054.66;;;15.55
60731;BMP280;46580;52.114;11.674;2023-05-16T11:45:11;101060.56;;;15.93
60731;BMP280;46580;52.114;11.674;2023-05-16T11:47:38;101054.25;;;16.04
60731;BMP280;46580;52.114;11.674;2023-05-16T11:50:11;101053.91;;;16.26
60731;BMP280;46580;52.114;11.674;2023-05-16T11:52:37;101060.84;;;16.35
60731;BMP280;46580;52.114;11.674;2023-05-16T11:55:07;101053.72;;;16.63
60731;BMP280;46580;52.114;11.674;2023-05-16T11:57:35;101051.47;;;16.94
60731;BMP280;46580;52.114;11.674;2023-05-16T12:00:04;101057.34;;;16.70
60731;BMP280;46580;52.114;11.674;2023-05-16T12:02:38;101061.88;;;16.68
60731;BMP280;46580;52.114;11.674;2023-05-16T12:05:09;101052.56;;;16.65
60731;BMP280;46580;52.114;11.674;2023-05-16T12:07:36;101049.66;;;17.12
60731;BMP280;46580;52.114;11.674;2023-05-16T12:10:09;101058.53;;;17.01
60731;BMP280;46580;52.114;11.674;2023-05-16T12:12:37;101046.94;;;16.96
60731;BMP280;46580;52.114;11.674;2023-05-16T12:15:05;101046.78;;;17.14
60731;BMP280;46580;52.114;11.674;2023-05-16T12:17:35;101050.44;;;17.04
60731;BMP280;46580;52.114;11.674;2023-05-16T12:20:01;101062.81;;;16.50
60731;BMP280;46580;52.114;11.674;2023-05-16T12:22:30;101047.25;;;16.40
60731;BMP280;46580;52.114;11.674;2023-05-16T12:24:58;101062.22;;;16.29
60731;BMP280;46580;52.114;11.674;2023-05-16T12:27:24;101046.88;;;16.62
60731;BMP280;46580;52.114;11.674;2023-05-16T12:29:50;101043.00;;;16.66
60731;BMP280;46580;52.114;11.674;2023-05-16T12:32:19;101036.81;;;16.93
60731;BMP280;46580;52.114;11.674;2023-05-16T12:34:52;101032.97;;;17.31
60731;BMP280;46580;52.114;11.674;2023-05-16T12:37:18;101039.81;;;16.98
60731;BMP280;46580;52.114;11.674;2023-05-16T12:39:45;101044.19;;;17.14
60731;BMP280;46580;52.114;11.674;2023-05-16T12:42:12;101043.06;;;17.00
60731;BMP280;46580;52.114;11.674;2023-05-16T12:44:38;101052.94;;;17.89
60731;BMP280;46580;52.114;11.674;2023-05-16T12:47:10;101059.63;;;17.92
60731;BMP280;46580;52.114;11.674;2023-05-16T12:49:46;101053.63;;;17.15
60731;BMP280;46580;52.114;11.674;2023-05-16T12:52:18;101039.34;;;17.19
60731;BMP280;46580;52.114;11.674;2023-05-16T12:54:46;101041.25;;;17.51
60731;BMP280;46580;52.114;11.674;2023-05-16T12:57:11;101044.63;;;17.27
60731;BMP280;46580;52.114;11.674;2023-05-16T12:59:37;101047.22;;;17.27
60731;BMP280;46580;52.114;11.674;2023-05-16T13:02:02;101047.38;;;17.09
60731;BMP280;46580;52.114;11.674;2023-05-16T13:04:29;101054.63;;;17.56
60731;BMP280;46580;52.114;11.674;2023-05-16T13:06:55;101051.66;;;17.51
60731;BMP280;46580;52.114;11.674;2023-05-16T13:09:21;101036.19;;;17.75
60731;BMP280;46580;52.114;11.674;2023-05-16T13:11:48;101049.50;;;17.47
60731;BMP280;46580;52.114;11.674;2023-05-16T13:14:15;101051.59;;;17.27
60731;BMP280;46580;52.114;11.674;2023-05-16T13:16:42;101050.94;;;17.67
60731;BMP280;46580;52.114;11.674;2023-05-16T13:19:07;101045.34;;;18.04
60731;BMP280;46580;52.114;11.674;2023-05-16T13:21:33;101058.69;;;18.01
60731;BMP280;46580;52.114;11.674;2023-05-16T13:23:58;101058.63;;;18.18
60731;BMP280;46580;52.114;11.674;2023-05-16T13:26:24;101050.59;;;18.44
60731;BMP280;46580;52.114;11.674;2023-05-16T13:28:49;101063.19;;;17.74
60731;BMP280;46580;52.114;11.674;2023-05-16T13:31:20;101042.22;;;17.33
60731;BMP280;46580;52.114;11.674;2023-05-16T13:33:46;101048.38;;;17.91
60731;BMP280;46580;52.114;11.674;2023-05-16T13:36:11;101056.56;;;17.79
60731;BMP280;46580;52.114;11.674;2023-05-16T13:38:37;101058.69;;;17.59
60731;BMP280;46580;52.114;11.674;2023-05-16T13:41:03;101065.84;;;17.82
60731;BMP280;46580;52.114;11.674;2023-05-16T13:43:31;101057.69;;;17.77
60731;BMP280;46580;52.114;11.674;2023-05-16T13:45:56;101051.38;;;18.04
60731;BMP280;46580;52.114;11.674;2023-05-16T13:48:21;101061.28;;;18.25
60731;BMP280;46580;52.114;11.674;2023-05-16T13:50:47;101055.88;;;18.19
60731;BMP280;46580;52.114;11.674;2023-05-16T13:53:12;101062.31;;;18.48
60731;BMP280;46580;52.114;11.674;2023-05-16T13:55:38;101062.09;;;18.01
60731;BMP280;46580;52.114;11.674;2023-05-16T13:58:04;101052.56;;;17.85
60731;BMP280;46580;52.114;11.674;2023-05-16T14:00:29;101077.34;;;17.88
60731;BMP280;46580;52.114;11.674;2023-05-16T14:02:55;101068.56;;;17.89
60731;BMP280;46580;52.114;11.674;2023-05-16T14:05:21;101071.13;;;18.39
60731;BMP280;46580;52.114;11.674;2023-05-16T14:07:46;101074.75;;;18.61
60731;BMP280;46580;52.114;11.674;2023-05-16T14:10:12;101065.28;;;18.12